NOZ6CM EIDW-ENGM
Flight info
| Callsign | NOZ6CM |
|---|---|
| Flight time | N/A |
| Altitude | 37000 |
| Route | ROTEV DCT GOTNA DCT ALOTI DCT PIPEX M609 RIPAM |
| Aircraft | B738/M-SDE2E3FGHIRWXY/LB1 |
Departure
| Time | 2026-05-01 14:52 |
|---|---|
| Airport | Dublin Airport (EIDW) |
Arrival
| Time | N/A |
|---|---|
| Airport | Oslo-Gardermoen International Airport (ENGM) |
| Time | Latitude | Longitude | Altitude | Speed | Heading |
|---|---|---|---|---|---|
| 2026-05-01 14:37 | 53.42767 | -6.24740 | 210 ft | 0 kts | 2° |
| 2026-05-01 14:40 | 53.42752 | -6.24741 | 215 ft | 2 kts | 2° |
| 2026-05-01 14:40 | 53.42736 | -6.24742 | 210 ft | 2 kts | 2° |
| 2026-05-01 14:40 | 53.42720 | -6.24743 | 210 ft | 2 kts | 2° |
| 2026-05-01 14:40 | 53.42703 | -6.24744 | 210 ft | 2 kts | 2° |
| 2026-05-01 14:41 | 53.42687 | -6.24745 | 210 ft | 2 kts | 2° |
| 2026-05-01 14:41 | 53.42671 | -6.24746 | 221 ft | 2 kts | 2° |
| 2026-05-01 14:41 | 53.42680 | -6.24746 | 210 ft | 2 kts | 2° |
| 2026-05-01 14:41 | 53.42694 | -6.24752 | 220 ft | 2 kts | 318° |
| 2026-05-01 14:42 | 53.42699 | -6.24775 | 212 ft | 2 kts | 269° |
| 2026-05-01 14:42 | 53.42693 | -6.24798 | 210 ft | 3 kts | 236° |
| 2026-05-01 14:42 | 53.42691 | -6.24804 | 210 ft | 0 kts | 238° |
| 2026-05-01 14:45 | 53.42686 | -6.24815 | 210 ft | 3 kts | 237° |
| 2026-05-01 14:45 | 53.42674 | -6.24932 | 212 ft | 9 kts | 308° |
| 2026-05-01 14:45 | 53.42738 | -6.25003 | 210 ft | 12 kts | 329° |
| 2026-05-01 14:46 | 53.42790 | -6.25099 | 214 ft | 11 kts | 282° |
| 2026-05-01 14:46 | 53.42889 | -6.25311 | 214 ft | 13 kts | 337° |
| 2026-05-01 14:46 | 53.42973 | -6.25371 | 217 ft | 13 kts | 336° |
| 2026-05-01 14:47 | 53.43053 | -6.25432 | 219 ft | 13 kts | 336° |
| 2026-05-01 14:47 | 53.43133 | -6.25489 | 213 ft | 12 kts | 337° |
| 2026-05-01 14:47 | 53.43210 | -6.25544 | 210 ft | 12 kts | 336° |
| 2026-05-01 14:48 | 53.43359 | -6.25649 | 215 ft | 11 kts | 351° |
| 2026-05-01 14:48 | 53.43406 | -6.25566 | 213 ft | 11 kts | 87° |
| 2026-05-01 14:48 | 53.43396 | -6.25358 | 210 ft | 11 kts | 95° |
| 2026-05-01 14:49 | 53.43383 | -6.25121 | 210 ft | 10 kts | 95° |
| 2026-05-01 14:49 | 53.43367 | -6.24835 | 213 ft | 19 kts | 95° |
| 2026-05-01 14:50 | 53.43347 | -6.24472 | 210 ft | 20 kts | 96° |
| 2026-05-01 14:50 | 53.43360 | -6.23859 | 210 ft | 22 kts | 12° |
| 2026-05-01 14:51 | 53.43487 | -6.23921 | 207 ft | 22 kts | 280° |
| 2026-05-01 14:51 | 53.43587 | -6.25728 | 210 ft | 142 kts | 275° |
| 2026-05-01 14:52 | 53.43848 | -6.29209 | 1303 ft | 164 kts | 275° |
| 2026-05-01 14:52 | 53.44038 | -6.31065 | 2160 ft | 164 kts | 277° |
| 2026-05-01 14:52 | 53.44514 | -6.35493 | 2999 ft | 212 kts | 281° |
| 2026-05-01 14:53 | 53.45276 | -6.37759 | 3367 ft | 245 kts | 313° |
| 2026-05-01 14:53 | 53.46846 | -6.39166 | 3864 ft | 269 kts | 347° |
| 2026-05-01 14:53 | 53.48744 | -6.39057 | 4658 ft | 278 kts | 12° |
| 2026-05-01 14:53 | 53.50584 | -6.38131 | 5510 ft | 280 kts | 19° |
| 2026-05-01 14:54 | 53.52435 | -6.36986 | 6336 ft | 286 kts | 21° |
| 2026-05-01 14:54 | 53.54334 | -6.35773 | 7108 ft | 292 kts | 21° |
| 2026-05-01 14:54 | 53.56234 | -6.34574 | 7793 ft | 299 kts | 21° |
| 2026-05-01 14:54 | 53.58203 | -6.33348 | 8564 ft | 304 kts | 21° |
| 2026-05-01 14:55 | 53.60210 | -6.32123 | 9324 ft | 310 kts | 21° |
| 2026-05-01 14:55 | 53.62255 | -6.30890 | 10080 ft | 315 kts | 21° |
| 2026-05-01 14:55 | 53.64358 | -6.29631 | 10531 ft | 331 kts | 20° |
| 2026-05-01 14:55 | 53.66613 | -6.28285 | 10756 ft | 353 kts | 20° |
| 2026-05-01 14:56 | 53.68965 | -6.26886 | 11314 ft | 362 kts | 20° |
| 2026-05-01 14:56 | 53.71356 | -6.25468 | 12064 ft | 366 kts | 20° |
| 2026-05-01 14:56 | 53.73768 | -6.24036 | 12855 ft | 369 kts | 20° |
| 2026-05-01 14:56 | 53.76211 | -6.22585 | 13614 ft | 374 kts | 20° |
| 2026-05-01 14:57 | 53.78684 | -6.21114 | 14336 ft | 379 kts | 20° |
| 2026-05-01 14:57 | 53.83711 | -6.18119 | 15771 ft | 387 kts | 21° |
| 2026-05-01 14:57 | 53.86268 | -6.16591 | 16487 ft | 392 kts | 21° |
| 2026-05-01 14:58 | 53.88852 | -6.15046 | 17187 ft | 397 kts | 21° |
| 2026-05-01 14:58 | 53.91473 | -6.13477 | 17891 ft | 401 kts | 21° |
| 2026-05-01 14:58 | 53.94085 | -6.11911 | 18555 ft | 406 kts | 21° |
| 2026-05-01 14:58 | 53.96795 | -6.10284 | 19180 ft | 410 kts | 21° |
| 2026-05-01 14:59 | 53.99463 | -6.08681 | 19790 ft | 413 kts | 21° |
| 2026-05-01 14:59 | 54.02185 | -6.07041 | 20411 ft | 417 kts | 22° |
| 2026-05-01 14:59 | 54.04877 | -6.05171 | 21004 ft | 420 kts | 26° |
| 2026-05-01 14:59 | 54.07531 | -6.03054 | 21588 ft | 423 kts | 28° |
| 2026-05-01 15:00 | 54.12861 | -5.98579 | 22760 ft | 431 kts | 28° |
| 2026-05-01 15:00 | 54.15564 | -5.96309 | 23333 ft | 435 kts | 28° |
| 2026-05-01 15:00 | 54.18303 | -5.94025 | 23860 ft | 439 kts | 28° |
| 2026-05-01 15:01 | 54.21061 | -5.91741 | 24337 ft | 443 kts | 28° |
| 2026-05-01 15:01 | 54.23779 | -5.89498 | 24796 ft | 445 kts | 28° |
| 2026-05-01 15:01 | 54.26577 | -5.87192 | 25277 ft | 448 kts | 28° |
| 2026-05-01 15:01 | 54.29396 | -5.84866 | 25733 ft | 451 kts | 28° |
| 2026-05-01 15:02 | 54.32200 | -5.82549 | 26173 ft | 454 kts | 28° |
| 2026-05-01 15:02 | 54.34123 | -5.80958 | 26458 ft | 456 kts | 28° |
| 2026-05-01 15:02 | 54.37930 | -5.77801 | 27045 ft | 460 kts | 28° |
| 2026-05-01 15:02 | 54.40817 | -5.75404 | 27482 ft | 462 kts | 28° |
| 2026-05-01 15:03 | 54.43719 | -5.72989 | 27912 ft | 465 kts | 28° |
| 2026-05-01 15:03 | 54.46637 | -5.70557 | 28328 ft | 467 kts | 28° |
| 2026-05-01 15:03 | 54.49571 | -5.68107 | 28734 ft | 470 kts | 28° |
| 2026-05-01 15:03 | 54.52521 | -5.65641 | 29131 ft | 472 kts | 28° |
| 2026-05-01 15:04 | 54.55486 | -5.63145 | 29526 ft | 474 kts | 30° |
| 2026-05-01 15:04 | 54.58282 | -5.60143 | 29886 ft | 473 kts | 40° |
| 2026-05-01 15:04 | 54.60786 | -5.56470 | 30247 ft | 471 kts | 48° |
| 2026-05-01 15:04 | 54.62902 | -5.52277 | 30548 ft | 468 kts | 57° |
| 2026-05-01 15:05 | 54.64854 | -5.47756 | 30855 ft | 470 kts | 58° |
| 2026-05-01 15:05 | 54.66780 | -5.43170 | 31140 ft | 472 kts | 58° |
| 2026-05-01 15:05 | 54.68704 | -5.38559 | 31420 ft | 474 kts | 58° |
| 2026-05-01 15:05 | 54.70643 | -5.33923 | 31726 ft | 475 kts | 58° |
| 2026-05-01 15:06 | 54.72590 | -5.29297 | 32128 ft | 474 kts | 58° |
| 2026-05-01 15:06 | 54.74515 | -5.24748 | 32556 ft | 472 kts | 58° |
| 2026-05-01 15:06 | 54.76462 | -5.20158 | 32951 ft | 472 kts | 58° |
| 2026-05-01 15:06 | 54.78403 | -5.15584 | 33276 ft | 472 kts | 58° |
| 2026-05-01 15:07 | 54.80352 | -5.10989 | 33630 ft | 472 kts | 57° |
| 2026-05-01 15:07 | 54.82294 | -5.06404 | 33987 ft | 471 kts | 58° |
| 2026-05-01 15:07 | 54.84232 | -5.01818 | 34298 ft | 471 kts | 57° |
| 2026-05-01 15:07 | 54.86170 | -4.97223 | 34602 ft | 471 kts | 57° |
| 2026-05-01 15:08 | 54.88102 | -4.92632 | 34877 ft | 471 kts | 57° |
| 2026-05-01 15:08 | 54.90029 | -4.88043 | 35165 ft | 470 kts | 57° |
| 2026-05-01 15:08 | 54.91954 | -4.83451 | 35466 ft | 470 kts | 57° |
| 2026-05-01 15:08 | 54.93852 | -4.78914 | 35743 ft | 469 kts | 57° |
| 2026-05-01 15:09 | 54.95769 | -4.74325 | 36019 ft | 469 kts | 57° |
| 2026-05-01 15:09 | 54.97685 | -4.69730 | 36314 ft | 468 kts | 57° |
| 2026-05-01 15:09 | 54.99596 | -4.65136 | 36582 ft | 468 kts | 57° |
| 2026-05-01 15:09 | 55.01503 | -4.60544 | 36850 ft | 468 kts | 57° |
| 2026-05-01 15:10 | 55.03410 | -4.55942 | 37094 ft | 468 kts | 57° |
| 2026-05-01 15:10 | 55.09136 | -4.42075 | 37115 ft | 468 kts | 57° |
| 2026-05-01 15:11 | 55.14805 | -4.28276 | 37117 ft | 464 kts | 57° |
| 2026-05-01 15:12 | 55.18550 | -4.19114 | 37121 ft | 463 kts | 57° |
| 2026-05-01 15:12 | 55.24124 | -4.05413 | 37108 ft | 462 kts | 57° |
| 2026-05-01 15:14 | 55.33402 | -3.82438 | 37109 ft | 462 kts | 57° |
| 2026-05-01 15:14 | 55.38978 | -3.68526 | 37123 ft | 465 kts | 57° |
| 2026-05-01 15:15 | 55.46430 | -3.49812 | 37105 ft | 466 kts | 57° |
| 2026-05-01 15:16 | 55.53833 | -3.31080 | 37107 ft | 466 kts | 57° |
| 2026-05-01 15:18 | 55.63089 | -3.07457 | 37092 ft | 467 kts | 57° |
| 2026-05-01 15:19 | 55.70432 | -2.88553 | 37079 ft | 464 kts | 57° |
| 2026-05-01 15:19 | 55.75872 | -2.74453 | 37081 ft | 462 kts | 57° |
| 2026-05-01 15:20 | 55.81294 | -2.60317 | 37078 ft | 460 kts | 57° |
| 2026-05-01 15:21 | 55.84888 | -2.50900 | 37081 ft | 460 kts | 57° |
| 2026-05-01 15:21 | 55.88474 | -2.41470 | 37084 ft | 460 kts | 57° |
| 2026-05-01 15:22 | 55.93840 | -2.27292 | 37080 ft | 460 kts | 57° |
| 2026-05-01 15:22 | 55.97410 | -2.17811 | 37088 ft | 460 kts | 57° |
| 2026-05-01 15:23 | 56.00953 | -2.08367 | 37088 ft | 460 kts | 57° |
| 2026-05-01 15:23 | 56.04514 | -1.98840 | 37091 ft | 461 kts | 57° |
| 2026-05-01 15:24 | 56.08072 | -1.89281 | 37094 ft | 461 kts | 58° |
| 2026-05-01 15:24 | 56.11628 | -1.79691 | 37095 ft | 462 kts | 58° |
| 2026-05-01 15:25 | 56.15179 | -1.70075 | 37096 ft | 462 kts | 58° |
| 2026-05-01 15:25 | 56.18722 | -1.60443 | 37094 ft | 463 kts | 58° |
| 2026-05-01 15:26 | 56.22269 | -1.50763 | 37097 ft | 463 kts | 58° |
| 2026-05-01 15:26 | 56.25766 | -1.41181 | 37096 ft | 463 kts | 58° |
| 2026-05-01 15:27 | 56.29276 | -1.31527 | 37099 ft | 463 kts | 58° |
| 2026-05-01 15:28 | 56.34559 | -1.16919 | 37104 ft | 464 kts | 58° |
| 2026-05-01 15:28 | 56.38070 | -1.07164 | 37102 ft | 464 kts | 58° |
| 2026-05-01 15:29 | 56.43304 | -0.92550 | 37105 ft | 464 kts | 58° |
| 2026-05-01 15:30 | 56.49717 | -0.74519 | 37105 ft | 464 kts | 58° |
| 2026-05-01 15:31 | 56.60699 | -0.43327 | 37107 ft | 464 kts | 59° |
| 2026-05-01 15:32 | 56.67618 | -0.23466 | 37112 ft | 465 kts | 59° |
| 2026-05-01 15:34 | 56.77937 | 0.06462 | 37117 ft | 466 kts | 59° |